createdAt,value
2018-05-31T00:00:34.262Z,954.45
2018-05-31T00:03:00.553Z,954.44
2018-05-31T00:05:26.844Z,954.51
2018-05-31T00:07:53.143Z,954.43
2018-05-31T00:10:19.472Z,954.41
2018-05-31T00:12:45.759Z,954.37
2018-05-31T00:15:12.054Z,954.38
2018-05-31T00:17:38.345Z,954.34
2018-05-31T00:20:04.681Z,954.38
2018-05-31T00:22:33.220Z,954.31
2018-05-31T00:24:59.509Z,954.39
2018-05-31T00:27:25.801Z,954.29
2018-05-31T00:29:52.141Z,954.33
2018-05-31T00:32:18.432Z,954.35
2018-05-31T00:34:44.721Z,954.29
2018-05-31T00:37:11.054Z,954.28
2018-05-31T00:39:37.343Z,954.27
2018-05-31T00:42:03.690Z,954.22
2018-05-31T00:44:29.976Z,954.25
2018-05-31T00:46:56.267Z,954.20
2018-05-31T00:49:22.561Z,954.19
2018-05-31T00:51:48.865Z,954.21
2018-05-31T00:54:15.158Z,954.20
2018-05-31T00:56:41.451Z,954.19
2018-05-31T00:59:07.791Z,954.23
2018-05-31T01:01:34.084Z,954.20
2018-05-31T01:04:00.372Z,954.16
2018-05-31T01:06:26.674Z,954.18
2018-05-31T01:08:52.955Z,954.17
2018-05-31T01:11:19.250Z,954.19
2018-05-31T01:13:45.550Z,954.18
2018-05-31T01:16:11.853Z,954.20
2018-05-31T01:18:38.140Z,954.21
2018-05-31T01:21:04.439Z,954.21
2018-05-31T01:23:30.743Z,954.23
2018-05-31T01:25:57.073Z,954.16
2018-05-31T01:28:23.371Z,954.17
2018-05-31T01:30:49.659Z,954.22
2018-05-31T01:33:15.959Z,954.17
2018-05-31T01:35:42.248Z,954.20
2018-05-31T01:38:08.568Z,954.24
2018-05-31T01:40:34.903Z,954.26
2018-05-31T01:43:01.247Z,954.24
2018-05-31T01:45:27.578Z,954.21
2018-05-31T01:47:53.871Z,954.20
2018-05-31T01:50:20.172Z,954.18
2018-05-31T01:52:46.516Z,954.15
2018-05-31T01:55:12.810Z,954.22
2018-05-31T01:57:39.114Z,954.15
2018-05-31T02:00:05.438Z,954.11
2018-05-31T02:02:31.733Z,954.13
2018-05-31T02:04:58.030Z,954.15
2018-05-31T02:07:24.322Z,954.11
2018-05-31T02:09:50.613Z,954.11
2018-05-31T02:12:16.904Z,954.16
2018-05-31T02:14:43.246Z,954.18
2018-05-31T02:17:09.539Z,954.26
2018-05-31T02:19:35.832Z,954.23
2018-05-31T02:22:02.121Z,954.22
2018-05-31T02:24:28.413Z,954.20
2018-05-31T02:26:54.699Z,954.26
2018-05-31T02:29:20.989Z,954.30
2018-05-31T02:31:47.278Z,954.34
2018-05-31T02:34:13.567Z,954.34
2018-05-31T02:36:39.868Z,954.36
2018-05-31T02:39:06.190Z,954.34
2018-05-31T02:41:32.475Z,954.40
2018-05-31T02:43:58.774Z,954.38
2018-05-31T02:46:25.112Z,954.41
2018-05-31T02:48:51.405Z,954.39
2018-05-31T02:51:17.691Z,954.41
2018-05-31T02:53:43.992Z,954.45
2018-05-31T02:56:10.292Z,954.44
2018-05-31T02:58:36.582Z,954.49
2018-05-31T03:01:02.881Z,954.49
2018-05-31T03:03:29.171Z,954.50
2018-05-31T03:05:55.476Z,954.54
2018-05-31T03:08:21.765Z,954.51
2018-05-31T03:10:48.051Z,954.55
2018-05-31T03:13:14.339Z,954.57
2018-05-31T03:15:40.633Z,954.56
2018-05-31T03:18:06.927Z,954.57
2018-05-31T03:20:33.221Z,954.62
2018-05-31T03:22:59.585Z,954.64
2018-05-31T03:25:25.913Z,954.63
2018-05-31T03:27:52.214Z,954.65
2018-05-31T03:30:18.516Z,954.66
2018-05-31T03:32:44.795Z,954.66
2018-05-31T03:35:11.124Z,954.69
2018-05-31T03:37:37.465Z,954.68
2018-05-31T03:40:03.760Z,954.68
2018-05-31T03:42:30.053Z,954.71
2018-05-31T03:44:56.353Z,954.67
2018-05-31T03:47:22.663Z,954.73
2018-05-31T03:49:48.946Z,954.74
2018-05-31T03:52:15.244Z,954.78
2018-05-31T03:54:41.534Z,954.79
2018-05-31T03:57:07.818Z,954.80
2018-05-31T03:59:34.116Z,954.78
2018-05-31T04:02:00.411Z,954.86
2018-05-31T04:04:26.708Z,954.83
2018-05-31T04:06:53.001Z,954.83
2018-05-31T04:09:19.291Z,954.82
2018-05-31T04:11:45.587Z,954.86
2018-05-31T04:14:11.881Z,954.86
2018-05-31T04:16:38.172Z,954.83
2018-05-31T04:19:04.460Z,954.74
2018-05-31T04:21:30.747Z,954.78
2018-05-31T04:23:57.041Z,954.78
2018-05-31T04:26:23.335Z,954.77
2018-05-31T04:28:49.643Z,954.79
2018-05-31T04:31:15.937Z,954.84
2018-05-31T04:33:42.300Z,954.82
2018-05-31T04:36:08.602Z,954.80
2018-05-31T04:38:34.893Z,954.87
2018-05-31T04:41:01.195Z,954.78
2018-05-31T04:43:27.535Z,954.76
2018-05-31T04:45:53.844Z,954.87
2018-05-31T04:48:20.138Z,954.87
2018-05-31T04:50:46.427Z,954.85
2018-05-31T04:53:12.720Z,954.89
2018-05-31T04:55:39.015Z,954.94
2018-05-31T04:58:05.318Z,954.90
2018-05-31T05:00:31.606Z,954.90
2018-05-31T05:02:57.940Z,954.96
2018-05-31T05:05:24.194Z,955.03
2018-05-31T05:07:50.489Z,955.02
2018-05-31T05:10:16.788Z,954.99
2018-05-31T05:12:43.091Z,954.96
2018-05-31T05:15:09.391Z,955.01
2018-05-31T05:17:35.689Z,954.96
2018-05-31T05:20:01.996Z,954.97
2018-05-31T05:22:28.330Z,954.97
2018-05-31T05:24:54.627Z,954.92
2018-05-31T05:27:20.921Z,954.94
2018-05-31T05:29:47.269Z,954.94
2018-05-31T05:32:13.546Z,955.01
2018-05-31T05:34:39.874Z,955.04
2018-05-31T05:37:06.130Z,954.99
2018-05-31T05:39:32.410Z,955.01
2018-05-31T05:41:58.740Z,954.95
2018-05-31T05:44:25.030Z,954.97
2018-05-31T05:46:51.372Z,954.93
2018-05-31T05:49:17.664Z,954.98
2018-05-31T05:51:43.949Z,955.04
2018-05-31T05:54:10.285Z,954.97
2018-05-31T05:56:36.620Z,955.01
2018-05-31T05:59:02.920Z,955.02
2018-05-31T06:01:29.358Z,955.00
2018-05-31T06:03:55.646Z,955.02
2018-05-31T06:06:21.943Z,955.00
2018-05-31T06:08:48.242Z,954.93
2018-05-31T06:11:14.533Z,954.95
2018-05-31T06:13:40.826Z,954.96
2018-05-31T06:16:07.111Z,954.91
2018-05-31T06:18:33.552Z,954.94
2018-05-31T06:20:59.904Z,954.95
2018-05-31T06:23:26.180Z,954.90
2018-05-31T06:25:52.478Z,954.87
2018-05-31T06:28:18.784Z,954.87
2018-05-31T06:30:45.150Z,954.88
2018-05-31T06:33:11.433Z,954.81
2018-05-31T06:35:37.727Z,954.79
2018-05-31T06:38:04.022Z,954.81
2018-05-31T06:40:30.329Z,954.80
2018-05-31T06:42:56.671Z,954.83
2018-05-31T06:45:22.909Z,954.79
2018-05-31T06:47:49.198Z,954.79
2018-05-31T06:50:15.483Z,954.79
2018-05-31T06:52:41.782Z,954.79
2018-05-31T06:55:08.118Z,954.81
2018-05-31T06:57:34.413Z,954.84
2018-05-31T07:00:00.756Z,954.83
2018-05-31T07:02:27.044Z,954.86
2018-05-31T07:04:53.341Z,954.89
2018-05-31T07:07:19.650Z,954.83
2018-05-31T07:09:45.985Z,954.82
2018-05-31T07:12:12.278Z,954.85
2018-05-31T07:14:38.578Z,954.85
2018-05-31T07:17:04.875Z,954.80
2018-05-31T07:19:31.187Z,954.81
2018-05-31T07:21:57.474Z,954.84
2018-05-31T07:24:23.774Z,954.83
2018-05-31T07:26:50.083Z,954.81
2018-05-31T07:29:16.384Z,954.83
2018-05-31T07:31:42.680Z,954.75
2018-05-31T07:34:09.115Z,954.81
2018-05-31T07:36:35.409Z,954.79
2018-05-31T07:39:01.702Z,954.76
2018-05-31T07:41:28.031Z,954.75
2018-05-31T07:43:54.348Z,954.76
2018-05-31T07:46:20.647Z,954.78
2018-05-31T07:48:46.937Z,954.74
2018-05-31T07:51:13.232Z,954.80
2018-05-31T07:53:39.534Z,954.76
2018-05-31T07:56:05.846Z,954.78
2018-05-31T07:58:32.136Z,954.75
2018-05-31T08:00:58.429Z,954.64
2018-05-31T08:03:24.770Z,954.66
2018-05-31T08:05:51.073Z,954.71
2018-05-31T08:08:17.377Z,954.76
2018-05-31T08:10:43.672Z,954.81
2018-05-31T08:13:09.964Z,954.75
2018-05-31T08:15:36.305Z,954.66
2018-05-31T08:18:02.603Z,954.75
2018-05-31T08:20:28.892Z,954.70
2018-05-31T08:22:55.261Z,954.66
2018-05-31T08:25:21.520Z,954.71
2018-05-31T08:27:47.814Z,954.67
2018-05-31T08:30:14.139Z,954.69
2018-05-31T08:32:40.437Z,954.65
2018-05-31T08:35:06.738Z,954.59
2018-05-31T08:37:33.024Z,954.61
2018-05-31T08:39:59.336Z,954.64
2018-05-31T08:42:25.632Z,954.60
2018-05-31T08:44:51.923Z,954.56
2018-05-31T08:47:18.206Z,954.47
2018-05-31T08:49:44.509Z,954.53
2018-05-31T08:52:10.803Z,954.49
2018-05-31T08:54:37.131Z,954.33
2018-05-31T08:57:03.420Z,954.42
2018-05-31T08:59:29.717Z,954.36
2018-05-31T09:01:56.052Z,954.41
2018-05-31T09:04:22.352Z,954.36
2018-05-31T09:06:48.712Z,954.43
2018-05-31T09:09:14.995Z,954.45
2018-05-31T09:11:41.300Z,954.42
2018-05-31T09:14:07.593Z,954.33
2018-05-31T09:16:33.908Z,954.33
2018-05-31T09:19:00.175Z,954.34
2018-05-31T09:21:26.466Z,954.38
2018-05-31T09:23:52.756Z,954.36
2018-05-31T09:26:19.059Z,954.29
2018-05-31T09:28:45.360Z,954.36
2018-05-31T09:31:11.686Z,954.32
2018-05-31T09:33:37.956Z,954.31
2018-05-31T09:36:04.241Z,954.19
2018-05-31T09:38:30.533Z,954.18
2018-05-31T09:40:56.877Z,954.23
2018-05-31T09:43:23.189Z,954.34
2018-05-31T09:45:49.479Z,954.27
2018-05-31T09:48:15.769Z,954.14
2018-05-31T09:50:42.060Z,954.23
2018-05-31T09:53:08.349Z,954.18
2018-05-31T09:55:34.642Z,954.15
2018-05-31T09:58:00.975Z,954.18
2018-05-31T10:00:27.259Z,954.10
2018-05-31T10:02:53.551Z,954.07
2018-05-31T10:05:19.891Z,953.96
2018-05-31T10:07:46.137Z,953.97
2018-05-31T10:10:12.428Z,953.97
2018-05-31T10:12:38.718Z,953.96
2018-05-31T10:15:05.008Z,953.85
2018-05-31T10:17:31.300Z,953.91
2018-05-31T10:19:57.591Z,953.98
2018-05-31T10:22:23.921Z,953.92
2018-05-31T10:24:50.215Z,953.89
2018-05-31T10:27:16.508Z,953.90
2018-05-31T10:29:42.814Z,953.85
2018-05-31T10:32:09.107Z,953.79
2018-05-31T10:34:35.395Z,953.80
2018-05-31T10:37:01.684Z,953.83
2018-05-31T10:39:28.048Z,953.81
2018-05-31T10:41:54.289Z,953.75
2018-05-31T10:44:20.578Z,953.62
2018-05-31T10:46:46.876Z,953.76
2018-05-31T10:49:13.164Z,953.69
2018-05-31T10:51:39.458Z,953.69
2018-05-31T10:54:05.753Z,953.68
2018-05-31T10:56:32.045Z,953.64
2018-05-31T10:58:58.348Z,953.63
2018-05-31T11:01:24.650Z,953.62
2018-05-31T11:03:50.948Z,953.54
2018-05-31T11:06:17.239Z,953.62
2018-05-31T11:08:43.595Z,953.57
2018-05-31T11:11:09.835Z,953.60
2018-05-31T11:13:36.142Z,953.62
2018-05-31T11:16:02.450Z,953.58
2018-05-31T11:18:28.747Z,953.55
2018-05-31T11:20:55.094Z,953.53
2018-05-31T11:23:21.384Z,953.56
2018-05-31T11:25:47.692Z,953.54
2018-05-31T11:28:13.979Z,953.52
2018-05-31T11:30:40.269Z,953.45
2018-05-31T11:33:06.568Z,953.41
2018-05-31T11:35:32.877Z,953.36
2018-05-31T11:37:59.166Z,953.38
2018-05-31T11:40:25.469Z,953.41
2018-05-31T11:42:51.758Z,953.28
2018-05-31T11:45:18.095Z,953.29
2018-05-31T11:47:44.345Z,953.31
2018-05-31T11:50:10.646Z,953.24
2018-05-31T11:52:36.941Z,953.24
2018-05-31T11:55:03.231Z,953.22
2018-05-31T11:57:29.557Z,953.23
2018-05-31T11:59:55.845Z,953.18
2018-05-31T12:02:22.155Z,953.19
2018-05-31T12:04:48.443Z,953.12
2018-05-31T12:07:14.742Z,953.08
2018-05-31T12:09:41.026Z,953.11
2018-05-31T12:12:07.350Z,953.05
2018-05-31T12:14:33.642Z,953.09
2018-05-31T12:16:59.932Z,953.00
2018-05-31T12:19:26.223Z,952.94
2018-05-31T12:21:52.529Z,952.89
2018-05-31T12:24:18.827Z,952.92
2018-05-31T12:26:45.193Z,952.91
2018-05-31T12:29:11.621Z,952.92
2018-05-31T12:31:37.912Z,952.93
2018-05-31T12:34:04.196Z,952.90
2018-05-31T12:36:30.506Z,952.95
2018-05-31T12:38:56.790Z,952.86
2018-05-31T12:41:23.086Z,952.83
2018-05-31T12:43:49.394Z,952.77
2018-05-31T12:46:15.695Z,952.70
2018-05-31T12:48:42.031Z,952.72
2018-05-31T12:51:08.321Z,952.67
2018-05-31T12:53:34.625Z,952.57
2018-05-31T12:56:00.923Z,952.63
2018-05-31T12:58:27.214Z,952.59
2018-05-31T13:00:53.654Z,952.53
2018-05-31T13:03:19.992Z,952.53
2018-05-31T13:05:46.319Z,952.47
2018-05-31T13:08:12.592Z,952.50
2018-05-31T13:10:38.896Z,952.42
2018-05-31T13:13:05.186Z,952.39
2018-05-31T13:15:31.479Z,952.34
2018-05-31T13:17:57.773Z,952.31
2018-05-31T13:20:24.070Z,952.33
2018-05-31T13:22:50.361Z,952.25
2018-05-31T13:25:16.656Z,952.30
2018-05-31T13:27:42.951Z,952.26
2018-05-31T13:30:09.240Z,952.23
2018-05-31T13:32:35.550Z,952.23
2018-05-31T13:35:01.839Z,952.16
2018-05-31T13:37:28.135Z,952.17
2018-05-31T13:39:54.431Z,952.16
2018-05-31T13:42:20.725Z,952.18
2018-05-31T13:44:47.052Z,952.17
2018-05-31T13:47:13.359Z,952.16
2018-05-31T13:49:39.695Z,952.10
2018-05-31T13:52:05.992Z,952.08
2018-05-31T13:54:32.293Z,952.00
2018-05-31T13:56:58.597Z,952.05
2018-05-31T13:59:24.896Z,952.05
2018-05-31T14:01:51.198Z,952.10
2018-05-31T14:04:17.519Z,952.03
2018-05-31T14:06:43.804Z,952.06
2018-05-31T14:09:10.109Z,952.02
2018-05-31T14:11:36.413Z,952.05
2018-05-31T14:14:02.701Z,951.99
2018-05-31T14:16:29.090Z,951.99
2018-05-31T14:18:55.383Z,952.03
2018-05-31T14:21:21.673Z,951.90
2018-05-31T14:23:47.968Z,951.87
2018-05-31T14:26:14.301Z,951.85
2018-05-31T14:28:40.595Z,951.83
2018-05-31T14:31:06.889Z,951.84
2018-05-31T14:33:33.191Z,951.87
2018-05-31T14:35:59.564Z,951.83
2018-05-31T14:38:28.701Z,951.84
2018-05-31T14:43:40.304Z,951.80
2018-05-31T14:46:06.601Z,951.79
2018-05-31T14:48:32.902Z,951.73
2018-05-31T14:50:59.193Z,951.70
2018-05-31T14:53:25.493Z,951.76
2018-05-31T14:55:51.829Z,951.77
2018-05-31T14:58:18.119Z,951.77
2018-05-31T15:00:44.405Z,951.76
2018-05-31T15:03:10.737Z,951.69
2018-05-31T15:05:37.024Z,951.72
2018-05-31T15:08:03.307Z,951.70
2018-05-31T15:10:29.604Z,951.71
2018-05-31T15:12:55.901Z,951.65
2018-05-31T15:15:22.196Z,951.75
2018-05-31T15:17:48.529Z,951.75
2018-05-31T15:20:14.818Z,951.72
2018-05-31T15:22:41.126Z,951.69
2018-05-31T15:25:07.408Z,951.75
2018-05-31T15:27:33.700Z,951.69
2018-05-31T15:30:00.037Z,951.62
2018-05-31T15:32:26.361Z,951.62
2018-05-31T15:34:52.620Z,951.53
2018-05-31T15:37:18.920Z,951.67
2018-05-31T15:39:45.221Z,951.59
2018-05-31T15:42:11.524Z,951.64
2018-05-31T15:44:37.824Z,951.65
2018-05-31T15:47:04.127Z,951.70
2018-05-31T15:49:30.416Z,951.68
2018-05-31T15:51:56.704Z,951.69
2018-05-31T15:54:23.042Z,951.75
2018-05-31T15:56:49.331Z,951.80
2018-05-31T15:59:15.627Z,951.74
2018-05-31T16:01:41.919Z,951.82
2018-05-31T16:04:08.267Z,951.80
2018-05-31T16:06:34.569Z,951.80
2018-05-31T16:09:00.856Z,951.82
2018-05-31T16:11:27.147Z,951.79
2018-05-31T16:13:53.438Z,951.80
2018-05-31T16:16:19.733Z,951.75
2018-05-31T16:18:46.035Z,951.75
2018-05-31T16:21:12.330Z,951.82
2018-05-31T16:23:38.623Z,951.78
2018-05-31T16:26:04.914Z,951.80
2018-05-31T16:28:31.268Z,951.74
2018-05-31T16:30:57.500Z,951.83
2018-05-31T16:33:23.837Z,951.80
2018-05-31T16:35:50.137Z,951.81
2018-05-31T16:38:16.436Z,951.86
2018-05-31T16:40:42.819Z,951.88
2018-05-31T16:43:09.067Z,951.84
2018-05-31T16:45:35.469Z,951.86
2018-05-31T16:48:01.777Z,951.87
2018-05-31T16:50:28.079Z,951.91
2018-05-31T16:52:54.400Z,951.91
2018-05-31T16:55:20.684Z,951.93
2018-05-31T16:57:46.985Z,951.96
2018-05-31T17:00:13.291Z,951.97
2018-05-31T17:02:39.584Z,951.97
2018-05-31T17:05:05.871Z,952.00
2018-05-31T17:07:32.159Z,952.03
2018-05-31T17:09:58.456Z,952.02
2018-05-31T17:12:24.775Z,952.06
2018-05-31T17:14:51.117Z,952.06
2018-05-31T17:17:17.368Z,951.96
2018-05-31T17:19:43.667Z,951.99
2018-05-31T17:22:09.957Z,951.99
2018-05-31T17:24:36.243Z,951.98
2018-05-31T17:27:02.533Z,951.99
2018-05-31T17:29:28.828Z,952.01
2018-05-31T17:31:55.115Z,952.02
2018-05-31T17:34:21.410Z,951.99
2018-05-31T17:36:47.717Z,952.00
2018-05-31T17:39:14.001Z,951.99
2018-05-31T17:41:40.337Z,952.03
2018-05-31T17:44:06.631Z,952.00
2018-05-31T17:46:32.924Z,952.07
2018-05-31T17:48:59.225Z,952.09
2018-05-31T17:51:25.521Z,952.13
2018-05-31T17:53:51.807Z,952.20
2018-05-31T17:56:18.103Z,952.22
2018-05-31T17:58:44.389Z,952.25
2018-05-31T18:01:10.685Z,952.17
2018-05-31T18:03:36.978Z,952.25
2018-05-31T18:06:03.277Z,952.29
2018-05-31T18:08:29.566Z,952.23
2018-05-31T18:10:55.854Z,952.33
2018-05-31T18:13:22.147Z,952.34
2018-05-31T18:15:48.497Z,952.45
2018-05-31T18:18:14.751Z,952.46
2018-05-31T18:20:41.052Z,952.47
2018-05-31T18:23:07.344Z,952.54
2018-05-31T18:25:33.639Z,952.54
2018-05-31T18:27:59.937Z,952.59
2018-05-31T18:30:26.279Z,952.61
2018-05-31T18:32:52.576Z,952.59
2018-05-31T18:35:18.870Z,952.62
2018-05-31T18:37:45.193Z,952.62
2018-05-31T18:40:11.480Z,952.69
2018-05-31T18:42:37.777Z,952.72
2018-05-31T18:45:04.062Z,952.74
2018-05-31T18:47:30.367Z,952.82
2018-05-31T18:49:56.661Z,952.79
2018-05-31T18:52:25.527Z,952.88
2018-05-31T18:54:50.473Z,952.87
2018-05-31T18:57:16.765Z,952.94
2018-05-31T18:59:43.060Z,952.97
2018-05-31T19:02:09.347Z,952.98
2018-05-31T19:04:35.647Z,953.01
2018-05-31T19:07:01.995Z,953.05
2018-05-31T19:09:28.276Z,953.02
2018-05-31T19:12:02.152Z,953.10
2018-05-31T19:14:28.462Z,953.13
2018-05-31T19:16:54.755Z,953.17
2018-05-31T19:19:21.125Z,953.19
2018-05-31T19:21:48.973Z,953.25
2018-05-31T19:24:13.886Z,953.13
2018-05-31T19:26:40.185Z,953.15
2018-05-31T19:29:06.473Z,953.16
2018-05-31T19:31:32.768Z,953.16
2018-05-31T19:33:59.082Z,953.16
2018-05-31T19:36:28.427Z,953.18
2018-05-31T19:38:58.342Z,953.18
2018-05-31T19:41:24.567Z,953.18
2018-05-31T19:43:50.868Z,953.18
2018-05-31T19:46:17.173Z,953.19
2018-05-31T19:48:43.463Z,953.17
2018-05-31T19:51:09.763Z,953.13
2018-05-31T19:53:36.063Z,953.18
2018-05-31T19:56:02.351Z,953.12
2018-05-31T19:58:28.676Z,953.12
2018-05-31T20:00:54.970Z,953.16
2018-05-31T20:03:21.276Z,953.16
2018-05-31T20:05:47.604Z,953.21
2018-05-31T20:08:13.896Z,953.25
2018-05-31T20:10:40.200Z,953.24
2018-05-31T20:13:06.550Z,953.30
2018-05-31T20:15:32.846Z,953.32
2018-05-31T20:17:59.151Z,953.35
2018-05-31T20:20:25.444Z,953.37
2018-05-31T20:22:51.735Z,953.32
2018-05-31T20:25:18.042Z,953.35
2018-05-31T20:27:44.478Z,953.39
2018-05-31T20:30:10.700Z,953.41
2018-05-31T20:32:37.004Z,953.46
2018-05-31T20:35:03.318Z,953.42
2018-05-31T20:37:29.609Z,953.41
2018-05-31T20:39:55.967Z,953.42
2018-05-31T20:42:22.258Z,953.40
2018-05-31T20:44:48.559Z,953.44
2018-05-31T20:47:14.844Z,953.52
2018-05-31T20:49:41.183Z,953.55
2018-05-31T20:52:07.480Z,953.47
2018-05-31T20:54:33.764Z,953.52
2018-05-31T20:57:00.061Z,953.49
2018-05-31T20:59:26.355Z,953.48
2018-05-31T21:01:52.648Z,953.49
2018-05-31T21:04:18.969Z,953.49
2018-05-31T21:06:45.250Z,953.54
2018-05-31T21:09:11.546Z,953.60
2018-05-31T21:11:37.843Z,953.61
2018-05-31T21:14:04.173Z,953.66
2018-05-31T21:16:30.430Z,953.70
2018-05-31T21:18:56.780Z,953.74
2018-05-31T21:21:23.076Z,953.73
2018-05-31T21:23:59.740Z,953.72
2018-05-31T21:26:28.634Z,953.74
2018-05-31T21:28:53.038Z,953.76
2018-05-31T21:31:19.340Z,953.76
2018-05-31T21:33:45.641Z,953.81
2018-05-31T21:36:11.961Z,953.80
2018-05-31T21:38:38.229Z,953.75
2018-05-31T21:41:04.531Z,953.83
2018-05-31T21:43:30.866Z,953.82
2018-05-31T21:45:57.203Z,953.80
2018-05-31T21:48:23.496Z,953.79
2018-05-31T21:50:49.856Z,953.74
2018-05-31T21:53:16.146Z,953.79
2018-05-31T21:55:42.427Z,953.79
2018-05-31T21:58:08.721Z,953.81
2018-05-31T22:00:35.017Z,953.80
2018-05-31T22:03:01.319Z,953.80
2018-05-31T22:05:27.615Z,953.79
2018-05-31T22:07:53.943Z,953.86
2018-05-31T22:10:20.233Z,953.86
2018-05-31T22:12:46.523Z,953.85
2018-05-31T22:15:12.823Z,953.86
2018-05-31T22:17:39.130Z,953.87
2018-05-31T22:20:05.423Z,953.87
2018-05-31T22:22:31.746Z,953.88
2018-05-31T22:24:58.090Z,953.84
2018-05-31T22:27:24.358Z,953.84
2018-05-31T22:29:50.694Z,953.83
2018-05-31T22:32:17.024Z,953.83
2018-05-31T22:34:43.309Z,953.82
2018-05-31T22:37:09.600Z,953.81
2018-05-31T22:39:35.888Z,953.79
2018-05-31T22:42:02.181Z,953.76
2018-05-31T22:44:28.472Z,953.77
2018-05-31T22:46:54.760Z,953.78
2018-05-31T22:49:21.053Z,953.71
2018-05-31T22:51:47.344Z,953.71
2018-05-31T22:54:13.638Z,953.76
2018-05-31T22:56:39.937Z,953.74
2018-05-31T22:59:06.274Z,953.76
2018-05-31T23:01:32.563Z,953.76
2018-05-31T23:03:58.858Z,953.73
2018-05-31T23:06:25.186Z,953.78
2018-05-31T23:08:51.489Z,953.80
2018-05-31T23:11:17.779Z,953.79
2018-05-31T23:13:44.080Z,953.79
2018-05-31T23:16:10.373Z,953.74
2018-05-31T23:18:36.716Z,953.75
2018-05-31T23:21:03.014Z,953.76
2018-05-31T23:23:29.301Z,953.76
2018-05-31T23:25:55.589Z,953.75
2018-05-31T23:28:21.881Z,953.74
2018-05-31T23:30:48.177Z,953.71
2018-05-31T23:33:14.512Z,953.63
2018-05-31T23:35:40.855Z,953.68
2018-05-31T23:38:07.094Z,953.71
2018-05-31T23:40:33.383Z,953.70
2018-05-31T23:42:59.675Z,953.71
2018-05-31T23:45:25.969Z,953.68
2018-05-31T23:47:52.256Z,953.66
2018-05-31T23:50:18.548Z,953.67
2018-05-31T23:52:44.842Z,953.72
2018-05-31T23:55:11.139Z,953.72
2018-05-31T23:57:37.425Z,953.74
